sensor_id;sensor_type;location;lat;lon;timestamp;temperature;humidity
15666;DHT22;20725;51.196;3.510;2022-07-29T00:02:28;18.30;63.40
15666;DHT22;20725;51.196;3.510;2022-07-29T00:05:03;18.30;62.50
15666;DHT22;20725;51.196;3.510;2022-07-29T00:07:34;18.30;63.30
15666;DHT22;20725;51.196;3.510;2022-07-29T00:10:03;18.20;63.30
15666;DHT22;20725;51.196;3.510;2022-07-29T00:12:36;18.20;63.90
15666;DHT22;20725;51.196;3.510;2022-07-29T00:15:04;18.20;63.60
15666;DHT22;20725;51.196;3.510;2022-07-29T00:17:50;18.20;63.80
15666;DHT22;20725;51.196;3.510;2022-07-29T00:20:17;18.20;63.50
15666;DHT22;20725;51.196;3.510;2022-07-29T00:22:48;18.20;63.80
15666;DHT22;20725;51.196;3.510;2022-07-29T00:25:21;18.10;64.30
15666;DHT22;20725;51.196;3.510;2022-07-29T00:27:55;18.20;64.30
15666;DHT22;20725;51.196;3.510;2022-07-29T00:30:29;18.00;64.30
15666;DHT22;20725;51.196;3.510;2022-07-29T00:33:05;18.10;64.70
15666;DHT22;20725;51.196;3.510;2022-07-29T00:35:42;18.00;64.80
15666;DHT22;20725;51.196;3.510;2022-07-29T00:38:16;18.00;64.80
15666;DHT22;20725;51.196;3.510;2022-07-29T00:40:56;17.90;65.00
15666;DHT22;20725;51.196;3.510;2022-07-29T00:43:25;17.80;65.90
15666;DHT22;20725;51.196;3.510;2022-07-29T00:45:53;17.60;66.30
15666;DHT22;20725;51.196;3.510;2022-07-29T00:48:37;17.60;66.50
15666;DHT22;20725;51.196;3.510;2022-07-29T00:51:09;17.50;67.30
15666;DHT22;20725;51.196;3.510;2022-07-29T00:53:38;17.40;67.20
15666;DHT22;20725;51.196;3.510;2022-07-29T00:56:05;17.40;67.80
15666;DHT22;20725;51.196;3.510;2022-07-29T00:58:33;17.30;67.90
15666;DHT22;20725;51.196;3.510;2022-07-29T01:01:04;17.20;68.00
15666;DHT22;20725;51.196;3.510;2022-07-29T01:03:33;17.10;68.10
15666;DHT22;20725;51.196;3.510;2022-07-29T01:06:01;17.00;69.30
15666;DHT22;20725;51.196;3.510;2022-07-29T01:08:33;16.90;69.40
15666;DHT22;20725;51.196;3.510;2022-07-29T01:11:01;16.90;70.10
15666;DHT22;20725;51.196;3.510;2022-07-29T01:13:29;16.80;70.80
15666;DHT22;20725;51.196;3.510;2022-07-29T01:16:02;16.70;71.10
15666;DHT22;20725;51.196;3.510;2022-07-29T01:18:34;16.70;71.50
15666;DHT22;20725;51.196;3.510;2022-07-29T01:21:24;16.60;71.80
15666;DHT22;20725;51.196;3.510;2022-07-29T01:24:11;16.50;72.60
15666;DHT22;20725;51.196;3.510;2022-07-29T01:26:53;16.50;72.80
15666;DHT22;20725;51.196;3.510;2022-07-29T01:30:01;16.40;72.70
15666;DHT22;20725;51.196;3.510;2022-07-29T01:32:34;16.40;74.20
15666;DHT22;20725;51.196;3.510;2022-07-29T01:35:06;16.20;75.30
15666;DHT22;20725;51.196;3.510;2022-07-29T01:37:45;16.20;74.50
15666;DHT22;20725;51.196;3.510;2022-07-29T01:40:35;16.10;75.10
15666;DHT22;20725;51.196;3.510;2022-07-29T01:43:27;16.00;75.30
15666;DHT22;20725;51.196;3.510;2022-07-29T01:46:17;16.00;76.30
15666;DHT22;20725;51.196;3.510;2022-07-29T01:49:05;16.00;76.80
15666;DHT22;20725;51.196;3.510;2022-07-29T01:51:49;15.80;77.30
15666;DHT22;20725;51.196;3.510;2022-07-29T01:54:21;15.80;78.20
15666;DHT22;20725;51.196;3.510;2022-07-29T01:57:06;15.80;78.30
15666;DHT22;20725;51.196;3.510;2022-07-29T01:59:51;15.80;78.50
15666;DHT22;20725;51.196;3.510;2022-07-29T02:04:59;15.70;79.50
15666;DHT22;20725;51.196;3.510;2022-07-29T02:07:40;15.60;80.30
15666;DHT22;20725;51.196;3.510;2022-07-29T02:10:10;15.60;80.20
15666;DHT22;20725;51.196;3.510;2022-07-29T02:12:39;15.60;80.30
15666;DHT22;20725;51.196;3.510;2022-07-29T02:15:10;15.50;81.20
15666;DHT22;20725;51.196;3.510;2022-07-29T02:17:42;15.50;81.80
15666;DHT22;20725;51.196;3.510;2022-07-29T02:20:16;15.50;81.70
15666;DHT22;20725;51.196;3.510;2022-07-29T02:22:45;15.50;82.40
15666;DHT22;20725;51.196;3.510;2022-07-29T02:25:16;15.40;82.40
15666;DHT22;20725;51.196;3.510;2022-07-29T02:27:46;15.40;82.40
15666;DHT22;20725;51.196;3.510;2022-07-29T02:30:15;15.40;83.90
15666;DHT22;20725;51.196;3.510;2022-07-29T02:32:43;15.40;84.00
15666;DHT22;20725;51.196;3.510;2022-07-29T02:35:26;15.30;84.00
15666;DHT22;20725;51.196;3.510;2022-07-29T02:37:55;15.30;86.20
15666;DHT22;20725;51.196;3.510;2022-07-29T02:40:42;15.30;85.10
15666;DHT22;20725;51.196;3.510;2022-07-29T02:43:12;15.20;86.00
15666;DHT22;20725;51.196;3.510;2022-07-29T02:45:47;15.20;86.70
15666;DHT22;20725;51.196;3.510;2022-07-29T02:48:21;15.20;87.20
15666;DHT22;20725;51.196;3.510;2022-07-29T02:51:01;15.10;87.20
15666;DHT22;20725;51.196;3.510;2022-07-29T02:53:38;15.10;87.60
15666;DHT22;20725;51.196;3.510;2022-07-29T02:56:11;15.00;88.00
15666;DHT22;20725;51.196;3.510;2022-07-29T02:58:42;15.00;88.60
15666;DHT22;20725;51.196;3.510;2022-07-29T03:01:14;15.00;88.80
15666;DHT22;20725;51.196;3.510;2022-07-29T03:03:44;15.00;88.40
15666;DHT22;20725;51.196;3.510;2022-07-29T03:06:17;14.90;89.30
15666;DHT22;20725;51.196;3.510;2022-07-29T03:08:44;14.90;89.00
15666;DHT22;20725;51.196;3.510;2022-07-29T03:11:12;14.90;89.80
15666;DHT22;20725;51.196;3.510;2022-07-29T03:13:40;14.90;90.10
15666;DHT22;20725;51.196;3.510;2022-07-29T03:16:08;14.80;90.40
15666;DHT22;20725;51.196;3.510;2022-07-29T03:18:38;14.80;90.20
15666;DHT22;20725;51.196;3.510;2022-07-29T03:21:05;14.80;90.40
15666;DHT22;20725;51.196;3.510;2022-07-29T03:23:34;14.80;90.30
15666;DHT22;20725;51.196;3.510;2022-07-29T03:26:01;14.70;90.40
15666;DHT22;20725;51.196;3.510;2022-07-29T03:28:29;14.70;90.60
15666;DHT22;20725;51.196;3.510;2022-07-29T03:30:56;14.60;90.60
15666;DHT22;20725;51.196;3.510;2022-07-29T03:33:23;14.60;90.80
15666;DHT22;20725;51.196;3.510;2022-07-29T03:35:52;14.50;90.60
15666;DHT22;20725;51.196;3.510;2022-07-29T03:38:19;14.50;90.70
15666;DHT22;20725;51.196;3.510;2022-07-29T03:40:51;14.50;90.70
15666;DHT22;20725;51.196;3.510;2022-07-29T03:43:20;14.50;90.70
15666;DHT22;20725;51.196;3.510;2022-07-29T03:45:51;14.40;90.80
15666;DHT22;20725;51.196;3.510;2022-07-29T03:48:21;14.30;90.80
15666;DHT22;20725;51.196;3.510;2022-07-29T03:50:50;14.30;90.80
15666;DHT22;20725;51.196;3.510;2022-07-29T03:53:17;14.30;91.10
15666;DHT22;20725;51.196;3.510;2022-07-29T03:55:52;14.30;91.20
15666;DHT22;20725;51.196;3.510;2022-07-29T03:58:26;14.30;91.00
15666;DHT22;20725;51.196;3.510;2022-07-29T04:00:54;14.20;91.10
15666;DHT22;20725;51.196;3.510;2022-07-29T04:03:21;14.20;91.10
15666;DHT22;20725;51.196;3.510;2022-07-29T04:05:58;14.10;91.20
15666;DHT22;20725;51.196;3.510;2022-07-29T04:08:25;14.10;91.60
15666;DHT22;20725;51.196;3.510;2022-07-29T04:10:53;14.10;91.50
15666;DHT22;20725;51.196;3.510;2022-07-29T04:13:20;14.10;91.60
15666;DHT22;20725;51.196;3.510;2022-07-29T04:15:47;14.10;91.60
15666;DHT22;20725;51.196;3.510;2022-07-29T04:18:14;14.00;91.60
15666;DHT22;20725;51.196;3.510;2022-07-29T04:20:42;14.00;91.80
15666;DHT22;20725;51.196;3.510;2022-07-29T04:23:09;14.10;91.70
15666;DHT22;20725;51.196;3.510;2022-07-29T04:25:37;14.00;92.00
15666;DHT22;20725;51.196;3.510;2022-07-29T04:28:07;14.10;92.60
15666;DHT22;20725;51.196;3.510;2022-07-29T04:30:35;14.10;92.70
15666;DHT22;20725;51.196;3.510;2022-07-29T04:33:04;14.10;93.10
15666;DHT22;20725;51.196;3.510;2022-07-29T04:35:36;14.20;92.60
15666;DHT22;20725;51.196;3.510;2022-07-29T04:38:04;14.20;92.10
15666;DHT22;20725;51.196;3.510;2022-07-29T04:40:31;14.20;92.10
15666;DHT22;20725;51.196;3.510;2022-07-29T04:42:59;14.20;92.00
15666;DHT22;20725;51.196;3.510;2022-07-29T04:45:28;14.20;92.00
15666;DHT22;20725;51.196;3.510;2022-07-29T04:47:55;14.20;91.90
15666;DHT22;20725;51.196;3.510;2022-07-29T04:50:22;14.30;92.10
15666;DHT22;20725;51.196;3.510;2022-07-29T04:52:49;14.40;91.80
15666;DHT22;20725;51.196;3.510;2022-07-29T04:55:16;14.50;91.80
15666;DHT22;20725;51.196;3.510;2022-07-29T04:57:43;14.60;91.80
15666;DHT22;20725;51.196;3.510;2022-07-29T05:00:18;14.70;91.90
15666;DHT22;20725;51.196;3.510;2022-07-29T05:02:49;14.80;91.80
15666;DHT22;20725;51.196;3.510;2022-07-29T05:05:17;15.00;91.10
15666;DHT22;20725;51.196;3.510;2022-07-29T05:07:44;15.20;91.00
15666;DHT22;20725;51.196;3.510;2022-07-29T05:10:11;15.30;91.30
15666;DHT22;20725;51.196;3.510;2022-07-29T05:12:38;15.40;90.70
15666;DHT22;20725;51.196;3.510;2022-07-29T05:15:06;15.60;90.50
15666;DHT22;20725;51.196;3.510;2022-07-29T05:17:33;15.60;90.70
15666;DHT22;20725;51.196;3.510;2022-07-29T05:20:02;15.60;91.00
15666;DHT22;20725;51.196;3.510;2022-07-29T05:22:29;15.60;91.30
15666;DHT22;20725;51.196;3.510;2022-07-29T05:24:56;15.90;91.20
15666;DHT22;20725;51.196;3.510;2022-07-29T05:27:23;16.10;90.80
15666;DHT22;20725;51.196;3.510;2022-07-29T05:29:50;16.30;90.50
15666;DHT22;20725;51.196;3.510;2022-07-29T05:32:17;16.60;90.30
15666;DHT22;20725;51.196;3.510;2022-07-29T05:34:44;16.80;90.00
15666;DHT22;20725;51.196;3.510;2022-07-29T05:37:14;16.90;89.50
15666;DHT22;20725;51.196;3.510;2022-07-29T05:40:12;17.10;88.70
15666;DHT22;20725;51.196;3.510;2022-07-29T05:42:41;17.30;89.10
15666;DHT22;20725;51.196;3.510;2022-07-29T05:45:15;17.50;88.30
15666;DHT22;20725;51.196;3.510;2022-07-29T05:47:44;17.70;87.50
15666;DHT22;20725;51.196;3.510;2022-07-29T05:50:16;17.90;86.80
15666;DHT22;20725;51.196;3.510;2022-07-29T05:52:44;18.20;85.60
15666;DHT22;20725;51.196;3.510;2022-07-29T05:55:20;18.30;83.70
15666;DHT22;20725;51.196;3.510;2022-07-29T05:57:51;18.50;83.10
15666;DHT22;20725;51.196;3.510;2022-07-29T06:00:22;18.70;82.10
15666;DHT22;20725;51.196;3.510;2022-07-29T06:02:54;18.80;80.40
15666;DHT22;20725;51.196;3.510;2022-07-29T06:05:21;19.00;79.40
15666;DHT22;20725;51.196;3.510;2022-07-29T06:08:01;19.20;79.40
15666;DHT22;20725;51.196;3.510;2022-07-29T06:10:41;19.50;78.10
15666;DHT22;20725;51.196;3.510;2022-07-29T06:13:29;19.70;77.70
15666;DHT22;20725;51.196;3.510;2022-07-29T06:16:03;20.00;75.50
15666;DHT22;20725;51.196;3.510;2022-07-29T06:18:31;20.40;76.90
15666;DHT22;20725;51.196;3.510;2022-07-29T06:21:00;20.80;75.10
15666;DHT22;20725;51.196;3.510;2022-07-29T06:23:29;21.10;74.10
15666;DHT22;20725;51.196;3.510;2022-07-29T06:25:56;21.50;73.20
15666;DHT22;20725;51.196;3.510;2022-07-29T06:28:23;21.90;71.80
15666;DHT22;20725;51.196;3.510;2022-07-29T06:30:50;22.40;70.10
15666;DHT22;20725;51.196;3.510;2022-07-29T06:33:18;22.80;67.80
15666;DHT22;20725;51.196;3.510;2022-07-29T06:35:45;23.10;66.40
15666;DHT22;20725;51.196;3.510;2022-07-29T06:38:13;23.50;64.10
15666;DHT22;20725;51.196;3.510;2022-07-29T06:40:47;23.80;61.70
15666;DHT22;20725;51.196;3.510;2022-07-29T06:43:32;24.10;61.20
15666;DHT22;20725;51.196;3.510;2022-07-29T06:46:04;24.50;59.50
15666;DHT22;20725;51.196;3.510;2022-07-29T06:48:32;24.90;57.60
15666;DHT22;20725;51.196;3.510;2022-07-29T06:51:02;25.20;56.70
15666;DHT22;20725;51.196;3.510;2022-07-29T06:53:29;25.50;55.10
15666;DHT22;20725;51.196;3.510;2022-07-29T06:56:00;26.00;54.00
15666;DHT22;20725;51.196;3.510;2022-07-29T06:58:30;26.40;52.60
15666;DHT22;20725;51.196;3.510;2022-07-29T07:01:00;26.60;51.60
15666;DHT22;20725;51.196;3.510;2022-07-29T07:03:37;27.00;50.80
15666;DHT22;20725;51.196;3.510;2022-07-29T07:06:17;27.20;49.80
15666;DHT22;20725;51.196;3.510;2022-07-29T07:08:55;27.70;48.60
15666;DHT22;20725;51.196;3.510;2022-07-29T07:11:24;28.00;48.70
15666;DHT22;20725;51.196;3.510;2022-07-29T07:13:51;28.40;47.00
15666;DHT22;20725;51.196;3.510;2022-07-29T07:16:30;28.70;46.50
15666;DHT22;20725;51.196;3.510;2022-07-29T07:18:59;29.30;44.60
15666;DHT22;20725;51.196;3.510;2022-07-29T07:21:29;29.60;44.70
15666;DHT22;20725;51.196;3.510;2022-07-29T07:23:56;29.80;43.70
15666;DHT22;20725;51.196;3.510;2022-07-29T07:26:24;30.20;43.50
15666;DHT22;20725;51.196;3.510;2022-07-29T07:29:09;30.50;42.50
15666;DHT22;20725;51.196;3.510;2022-07-29T07:31:40;30.80;40.10
15666;DHT22;20725;51.196;3.510;2022-07-29T07:34:10;31.00;40.00
15666;DHT22;20725;51.196;3.510;2022-07-29T07:36:37;31.20;40.00
15666;DHT22;20725;51.196;3.510;2022-07-29T07:39:04;31.60;39.70
15666;DHT22;20725;51.196;3.510;2022-07-29T07:41:51;31.80;38.90
15666;DHT22;20725;51.196;3.510;2022-07-29T07:44:18;31.70;37.50
15666;DHT22;20725;51.196;3.510;2022-07-29T07:46:45;32.00;37.90
15666;DHT22;20725;51.196;3.510;2022-07-29T07:49:13;32.50;37.00
15666;DHT22;20725;51.196;3.510;2022-07-29T07:51:49;32.90;35.90
15666;DHT22;20725;51.196;3.510;2022-07-29T07:54:18;33.30;35.20
15666;DHT22;20725;51.196;3.510;2022-07-29T07:56:48;33.60;34.30
15666;DHT22;20725;51.196;3.510;2022-07-29T07:59:36;34.00;32.00
15666;DHT22;20725;51.196;3.510;2022-07-29T08:02:26;34.50;31.10
15666;DHT22;20725;51.196;3.510;2022-07-29T08:04:59;34.60;31.80
15666;DHT22;20725;51.196;3.510;2022-07-29T08:07:41;35.00;29.90
15666;DHT22;20725;51.196;3.510;2022-07-29T08:10:18;35.00;30.80
15666;DHT22;20725;51.196;3.510;2022-07-29T08:16:25;36.40;29.20
15666;DHT22;20725;51.196;3.510;2022-07-29T08:18:58;37.00;29.20
15666;DHT22;20725;51.196;3.510;2022-07-29T08:21:25;37.40;28.50
15666;DHT22;20725;51.196;3.510;2022-07-29T08:24:01;37.10;28.20
15666;DHT22;20725;51.196;3.510;2022-07-29T08:26:42;37.50;28.10
15666;DHT22;20725;51.196;3.510;2022-07-29T08:29:10;37.90;28.00
15666;DHT22;20725;51.196;3.510;2022-07-29T08:31:41;38.30;27.90
15666;DHT22;20725;51.196;3.510;2022-07-29T08:34:13;38.70;26.90
15666;DHT22;20725;51.196;3.510;2022-07-29T08:36:40;39.00;26.70
15666;DHT22;20725;51.196;3.510;2022-07-29T08:39:07;38.70;26.20
15666;DHT22;20725;51.196;3.510;2022-07-29T08:41:37;39.10;25.80
15666;DHT22;20725;51.196;3.510;2022-07-29T08:44:04;39.20;25.20
15666;DHT22;20725;51.196;3.510;2022-07-29T08:46:33;39.10;25.40
15666;DHT22;20725;51.196;3.510;2022-07-29T08:49:02;39.60;25.80
15666;DHT22;20725;51.196;3.510;2022-07-29T08:51:46;40.20;24.90
15666;DHT22;20725;51.196;3.510;2022-07-29T08:54:22;40.80;24.20
15666;DHT22;20725;51.196;3.510;2022-07-29T08:57:03;41.20;23.70
15666;DHT22;20725;51.196;3.510;2022-07-29T08:59:37;41.50;22.40
15666;DHT22;20725;51.196;3.510;2022-07-29T09:02:15;40.00;23.10
15666;DHT22;20725;51.196;3.510;2022-07-29T09:05:00;40.90;23.80
15666;DHT22;20725;51.196;3.510;2022-07-29T09:07:30;41.70;23.00
15666;DHT22;20725;51.196;3.510;2022-07-29T09:09:59;41.90;21.90
15666;DHT22;20725;51.196;3.510;2022-07-29T09:12:27;41.80;21.90
15666;DHT22;20725;51.196;3.510;2022-07-29T09:15:03;42.00;21.60
15666;DHT22;20725;51.196;3.510;2022-07-29T09:17:42;42.40;21.40
15666;DHT22;20725;51.196;3.510;2022-07-29T09:20:22;42.80;20.70
15666;DHT22;20725;51.196;3.510;2022-07-29T09:22:56;43.10;21.10
15666;DHT22;20725;51.196;3.510;2022-07-29T09:25:39;43.60;20.20
15666;DHT22;20725;51.196;3.510;2022-07-29T09:28:07;43.70;19.90
15666;DHT22;20725;51.196;3.510;2022-07-29T09:30:39;43.80;19.30
15666;DHT22;20725;51.196;3.510;2022-07-29T09:33:18;43.80;20.20
15666;DHT22;20725;51.196;3.510;2022-07-29T09:39:00;44.30;20.10
15666;DHT22;20725;51.196;3.510;2022-07-29T09:41:44;45.00;18.20
15666;DHT22;20725;51.196;3.510;2022-07-29T09:44:23;44.70;17.90
15666;DHT22;20725;51.196;3.510;2022-07-29T09:46:57;44.60;18.90
15666;DHT22;20725;51.196;3.510;2022-07-29T09:49:33;44.70;17.70
15666;DHT22;20725;51.196;3.510;2022-07-29T09:52:13;44.70;17.80
15666;DHT22;20725;51.196;3.510;2022-07-29T09:54:53;45.60;17.40
15666;DHT22;20725;51.196;3.510;2022-07-29T09:58:14;45.70;17.50
15666;DHT22;20725;51.196;3.510;2022-07-29T10:04:19;45.20;17.20
15666;DHT22;20725;51.196;3.510;2022-07-29T10:07:06;45.00;17.50
15666;DHT22;20725;51.196;3.510;2022-07-29T10:09:39;45.60;18.20
15666;DHT22;20725;51.196;3.510;2022-07-29T10:12:36;46.40;16.70
15666;DHT22;20725;51.196;3.510;2022-07-29T10:15:28;46.90;15.00
15666;DHT22;20725;51.196;3.510;2022-07-29T10:18:05;46.60;15.50
15666;DHT22;20725;51.196;3.510;2022-07-29T10:20:47;46.50;15.90
15666;DHT22;20725;51.196;3.510;2022-07-29T10:23:18;46.30;15.90
15666;DHT22;20725;51.196;3.510;2022-07-29T10:25:58;46.70;15.50
15666;DHT22;20725;51.196;3.510;2022-07-29T10:35:12;47.60;14.70
15666;DHT22;20725;51.196;3.510;2022-07-29T10:38:12;48.20;15.30
15666;DHT22;20725;51.196;3.510;2022-07-29T10:40:54;48.70;14.40
15666;DHT22;20725;51.196;3.510;2022-07-29T10:43:48;48.20;15.70
15666;DHT22;20725;51.196;3.510;2022-07-29T10:46:17;48.20;15.20
15666;DHT22;20725;51.196;3.510;2022-07-29T10:49:08;48.80;14.70
15666;DHT22;20725;51.196;3.510;2022-07-29T10:52:15;48.50;15.00
15666;DHT22;20725;51.196;3.510;2022-07-29T11:01:53;48.40;14.20
15666;DHT22;20725;51.196;3.510;2022-07-29T11:08:26;49.80;14.80
15666;DHT22;20725;51.196;3.510;2022-07-29T11:11:34;50.40;15.20
15666;DHT22;20725;51.196;3.510;2022-07-29T11:14:09;50.70;15.00
15666;DHT22;20725;51.196;3.510;2022-07-29T11:16:59;50.90;14.40
15666;DHT22;20725;51.196;3.510;2022-07-29T11:19:41;50.50;14.20
15666;DHT22;20725;51.196;3.510;2022-07-29T11:22:52;49.90;15.00
15666;DHT22;20725;51.196;3.510;2022-07-29T11:25:43;49.40;15.30
15666;DHT22;20725;51.196;3.510;2022-07-29T11:28:27;50.50;14.90
15666;DHT22;20725;51.196;3.510;2022-07-29T11:31:31;50.40;14.00
15666;DHT22;20725;51.196;3.510;2022-07-29T11:34:39;51.30;14.40
15666;DHT22;20725;51.196;3.510;2022-07-29T11:37:26;51.00;13.50
15666;DHT22;20725;51.196;3.510;2022-07-29T11:40:36;50.30;14.50
15666;DHT22;20725;51.196;3.510;2022-07-29T11:49:44;52.10;12.90
15666;DHT22;20725;51.196;3.510;2022-07-29T11:52:46;52.40;13.70
15666;DHT22;20725;51.196;3.510;2022-07-29T11:55:24;53.10;12.40
15666;DHT22;20725;51.196;3.510;2022-07-29T11:58:03;51.20;12.60
15666;DHT22;20725;51.196;3.510;2022-07-29T12:01:11;51.30;12.90
15666;DHT22;20725;51.196;3.510;2022-07-29T12:03:43;52.00;13.10
15666;DHT22;20725;51.196;3.510;2022-07-29T12:06:25;53.20;12.10
15666;DHT22;20725;51.196;3.510;2022-07-29T12:08:56;53.30;12.20
15666;DHT22;20725;51.196;3.510;2022-07-29T12:11:27;52.80;12.60
15666;DHT22;20725;51.196;3.510;2022-07-29T12:13:57;52.00;12.90
15666;DHT22;20725;51.196;3.510;2022-07-29T12:16:35;49.50;13.20
15666;DHT22;20725;51.196;3.510;2022-07-29T12:19:15;50.30;13.80
15666;DHT22;20725;51.196;3.510;2022-07-29T12:21:54;51.20;13.20
15666;DHT22;20725;51.196;3.510;2022-07-29T12:24:26;51.90;12.70
15666;DHT22;20725;51.196;3.510;2022-07-29T12:27:06;49.50;13.10
15666;DHT22;20725;51.196;3.510;2022-07-29T12:29:54;49.90;13.80
15666;DHT22;20725;51.196;3.510;2022-07-29T12:32:35;50.80;13.60
15666;DHT22;20725;51.196;3.510;2022-07-29T12:35:20;50.40;13.60
15666;DHT22;20725;51.196;3.510;2022-07-29T12:37:54;51.80;13.50
15666;DHT22;20725;51.196;3.510;2022-07-29T12:40:29;51.70;13.10
15666;DHT22;20725;51.196;3.510;2022-07-29T12:43:13;52.20;12.70
15666;DHT22;20725;51.196;3.510;2022-07-29T12:45:56;52.30;13.30
15666;DHT22;20725;51.196;3.510;2022-07-29T12:48:42;53.90;12.80
15666;DHT22;20725;51.196;3.510;2022-07-29T12:51:34;54.00;11.40
15666;DHT22;20725;51.196;3.510;2022-07-29T12:54:25;54.10;11.90
15666;DHT22;20725;51.196;3.510;2022-07-29T12:57:00;54.60;11.30
15666;DHT22;20725;51.196;3.510;2022-07-29T12:59:33;54.30;11.40
15666;DHT22;20725;51.196;3.510;2022-07-29T13:02:04;54.40;11.40
15666;DHT22;20725;51.196;3.510;2022-07-29T13:04:42;53.80;11.50
15666;DHT22;20725;51.196;3.510;2022-07-29T13:07:32;53.90;11.60
15666;DHT22;20725;51.196;3.510;2022-07-29T13:10:21;53.40;11.70
15666;DHT22;20725;51.196;3.510;2022-07-29T13:13:13;54.40;11.70
15666;DHT22;20725;51.196;3.510;2022-07-29T13:15:44;53.60;11.90
15666;DHT22;20725;51.196;3.510;2022-07-29T13:18:33;53.00;11.50
15666;DHT22;20725;51.196;3.510;2022-07-29T13:21:13;53.60;12.30
15666;DHT22;20725;51.196;3.510;2022-07-29T13:23:44;53.30;12.30
15666;DHT22;20725;51.196;3.510;2022-07-29T13:26:13;53.40;11.70
15666;DHT22;20725;51.196;3.510;2022-07-29T13:28:47;52.90;11.70
15666;DHT22;20725;51.196;3.510;2022-07-29T13:31:30;52.40;11.90
15666;DHT22;20725;51.196;3.510;2022-07-29T13:34:14;52.60;11.90
15666;DHT22;20725;51.196;3.510;2022-07-29T13:37:06;53.00;11.90
15666;DHT22;20725;51.196;3.510;2022-07-29T13:39:36;52.10;11.10
15666;DHT22;20725;51.196;3.510;2022-07-29T13:42:13;52.40;12.00
15666;DHT22;20725;51.196;3.510;2022-07-29T13:44:43;52.40;12.00
15666;DHT22;20725;51.196;3.510;2022-07-29T13:47:24;51.90;12.10
15666;DHT22;20725;51.196;3.510;2022-07-29T13:49:53;51.70;12.30
15666;DHT22;20725;51.196;3.510;2022-07-29T13:52:29;52.30;12.10
15666;DHT22;20725;51.196;3.510;2022-07-29T13:55:11;50.80;12.70
15666;DHT22;20725;51.196;3.510;2022-07-29T13:58:05;51.60;12.20
15666;DHT22;20725;51.196;3.510;2022-07-29T14:00:46;52.00;12.10
15666;DHT22;20725;51.196;3.510;2022-07-29T14:03:15;51.40;12.20
15666;DHT22;20725;51.196;3.510;2022-07-29T14:05:51;50.70;12.80
15666;DHT22;20725;51.196;3.510;2022-07-29T14:08:18;50.30;13.10
15666;DHT22;20725;51.196;3.510;2022-07-29T14:10:47;50.60;13.20
15666;DHT22;20725;51.196;3.510;2022-07-29T14:13:20;50.60;13.00
15666;DHT22;20725;51.196;3.510;2022-07-29T14:15:46;50.30;13.10
15666;DHT22;20725;51.196;3.510;2022-07-29T14:18:13;50.00;13.30
15666;DHT22;20725;51.196;3.510;2022-07-29T14:20:40;51.20;13.30
15666;DHT22;20725;51.196;3.510;2022-07-29T14:23:23;50.40;12.90
15666;DHT22;20725;51.196;3.510;2022-07-29T14:25:58;51.30;13.10
15666;DHT22;20725;51.196;3.510;2022-07-29T14:28:28;51.30;12.40
15666;DHT22;20725;51.196;3.510;2022-07-29T14:30:58;50.80;12.80
15666;DHT22;20725;51.196;3.510;2022-07-29T14:33:25;50.80;12.90
15666;DHT22;20725;51.196;3.510;2022-07-29T14:35:56;48.40;13.80
15666;DHT22;20725;51.196;3.510;2022-07-29T14:38:28;48.20;14.00
15666;DHT22;20725;51.196;3.510;2022-07-29T14:40:57;49.00;14.10
15666;DHT22;20725;51.196;3.510;2022-07-29T14:43:30;50.00;13.30
15666;DHT22;20725;51.196;3.510;2022-07-29T14:45:57;49.10;13.50
15666;DHT22;20725;51.196;3.510;2022-07-29T14:48:24;48.90;13.70
15666;DHT22;20725;51.196;3.510;2022-07-29T14:50:51;49.70;13.70
15666;DHT22;20725;51.196;3.510;2022-07-29T14:53:27;49.50;13.20
15666;DHT22;20725;51.196;3.510;2022-07-29T14:55:57;50.00;13.60
15666;DHT22;20725;51.196;3.510;2022-07-29T14:58:30;50.40;13.60
15666;DHT22;20725;51.196;3.510;2022-07-29T15:00:59;49.20;13.80
15666;DHT22;20725;51.196;3.510;2022-07-29T15:03:30;48.90;13.60
15666;DHT22;20725;51.196;3.510;2022-07-29T15:06:03;48.20;13.50
15666;DHT22;20725;51.196;3.510;2022-07-29T15:08:36;47.30;14.30
15666;DHT22;20725;51.196;3.510;2022-07-29T15:11:09;43.50;15.40
15666;DHT22;20725;51.196;3.510;2022-07-29T15:13:39;40.10;18.10
15666;DHT22;20725;51.196;3.510;2022-07-29T15:16:06;38.40;20.10
15666;DHT22;20725;51.196;3.510;2022-07-29T15:18:33;37.60;20.50
15666;DHT22;20725;51.196;3.510;2022-07-29T15:21:03;36.80;21.20
15666;DHT22;20725;51.196;3.510;2022-07-29T15:23:59;36.00;22.00
15666;DHT22;20725;51.196;3.510;2022-07-29T15:27:02;35.30;22.60
15666;DHT22;20725;51.196;3.510;2022-07-29T15:29:35;35.20;23.70
15666;DHT22;20725;51.196;3.510;2022-07-29T15:32:08;34.70;22.90
15666;DHT22;20725;51.196;3.510;2022-07-29T15:34:35;33.90;24.60
15666;DHT22;20725;51.196;3.510;2022-07-29T15:37:14;33.10;25.60
15666;DHT22;20725;51.196;3.510;2022-07-29T15:39:47;32.60;25.70
15666;DHT22;20725;51.196;3.510;2022-07-29T15:42:17;32.60;26.50
15666;DHT22;20725;51.196;3.510;2022-07-29T15:44:51;32.20;26.90
15666;DHT22;20725;51.196;3.510;2022-07-29T15:47:22;32.40;27.20
15666;DHT22;20725;51.196;3.510;2022-07-29T15:49:49;32.10;26.70
15666;DHT22;20725;51.196;3.510;2022-07-29T15:52:17;32.10;26.80
15666;DHT22;20725;51.196;3.510;2022-07-29T15:54:52;31.70;27.40
15666;DHT22;20725;51.196;3.510;2022-07-29T15:57:23;31.40;28.30
15666;DHT22;20725;51.196;3.510;2022-07-29T16:00:01;31.20;29.00
15666;DHT22;20725;51.196;3.510;2022-07-29T16:02:38;30.90;29.80
15666;DHT22;20725;51.196;3.510;2022-07-29T16:05:10;30.90;28.40
15666;DHT22;20725;51.196;3.510;2022-07-29T16:07:40;30.70;28.20
15666;DHT22;20725;51.196;3.510;2022-07-29T16:10:09;30.70;28.90
15666;DHT22;20725;51.196;3.510;2022-07-29T16:12:51;30.30;29.40
15666;DHT22;20725;51.196;3.510;2022-07-29T16:15:22;30.00;30.80
15666;DHT22;20725;51.196;3.510;2022-07-29T16:17:51;29.70;30.20
15666;DHT22;20725;51.196;3.510;2022-07-29T16:20:20;29.20;30.80
15666;DHT22;20725;51.196;3.510;2022-07-29T16:22:49;29.00;31.50
15666;DHT22;20725;51.196;3.510;2022-07-29T16:25:17;28.90;31.90
15666;DHT22;20725;51.196;3.510;2022-07-29T16:27:45;28.90;31.80
15666;DHT22;20725;51.196;3.510;2022-07-29T16:30:12;28.50;32.70
15666;DHT22;20725;51.196;3.510;2022-07-29T16:32:50;28.40;32.80
15666;DHT22;20725;51.196;3.510;2022-07-29T16:35:17;28.10;33.80
15666;DHT22;20725;51.196;3.510;2022-07-29T16:37:44;27.90;34.50
15666;DHT22;20725;51.196;3.510;2022-07-29T16:40:11;27.60;35.30
15666;DHT22;20725;51.196;3.510;2022-07-29T16:42:38;27.50;34.80
15666;DHT22;20725;51.196;3.510;2022-07-29T16:45:08;27.10;34.50
15666;DHT22;20725;51.196;3.510;2022-07-29T16:47:35;26.90;35.00
15666;DHT22;20725;51.196;3.510;2022-07-29T16:50:06;26.70;35.50
15666;DHT22;20725;51.196;3.510;2022-07-29T16:52:34;26.60;35.80
15666;DHT22;20725;51.196;3.510;2022-07-29T16:55:02;26.30;36.30